sensor_id;sensor_type;location;lat;lon;timestamp;pressure;altitude;pressure_sealevel;temperature;humidity
5877;BME280;2964;42.144;24.730;2022-12-17T00:01:43;143844.00;;;9.06;100.00
5877;BME280;2964;42.144;24.730;2022-12-17T00:04:27;143897.94;;;9.28;100.00
5877;BME280;2964;42.144;24.730;2022-12-17T00:07:11;143825.19;;;8.98;100.00
5877;BME280;2964;42.144;24.730;2022-12-17T00:09:57;143811.34;;;8.93;100.00
5877;BME280;2964;42.144;24.730;2022-12-17T00:12:41;143861.56;;;9.13;100.00
5877;BME280;2964;42.144;24.730;2022-12-17T00:15:25;143805.09;;;8.90;100.00
5877;BME280;2964;42.144;24.730;2022-12-17T00:18:23;143825.19;;;8.98;100.00
5877;BME280;2964;42.144;24.730;2022-12-17T00:21:08;143870.34;;;9.17;100.00
5877;BME280;2964;42.144;24.730;2022-12-17T00:23:52;143832.69;;;9.01;100.00
5877;BME280;2964;42.144;24.730;2022-12-17T00:26:38;143826.44;;;8.99;100.00
5877;BME280;2964;42.144;24.730;2022-12-17T00:29:22;143813.88;;;8.94;100.00
5877;BME280;2964;42.144;24.730;2022-12-17T00:32:08;143837.69;;;9.03;100.00
5877;BME280;2964;42.144;24.730;2022-12-17T00:34:52;143849.00;;;9.08;100.00
5877;BME280;2964;42.144;24.730;2022-12-17T00:37:37;143786.28;;;8.82;100.00
5877;BME280;2964;42.144;24.730;2022-12-17T00:40:21;143830.19;;;9.00;100.00
5877;BME280;2964;42.144;24.730;2022-12-17T00:43:10;143767.47;;;8.75;100.00
5877;BME280;2964;42.144;24.730;2022-12-17T00:45:55;143827.66;;;8.99;100.00
5877;BME280;2964;42.144;24.730;2022-12-17T00:48:40;143887.88;;;9.24;100.00
5877;BME280;2964;42.144;24.730;2022-12-17T00:51:39;143782.50;;;8.81;100.00
5877;BME280;2964;42.144;24.730;2022-12-17T00:54:23;143812.63;;;8.93;100.00
5877;BME280;2964;42.144;24.730;2022-12-17T00:57:07;143803.84;;;8.89;100.00
5877;BME280;2964;42.144;24.730;2022-12-17T00:59:52;143887.88;;;9.24;100.00
5877;BME280;2964;42.144;24.730;2022-12-17T01:02:36;143897.94;;;9.28;100.00
5877;BME280;2964;42.144;24.730;2022-12-17T01:05:20;143818.88;;;8.96;100.00
5877;BME280;2964;42.144;24.730;2022-12-17T01:08:08;143865.28;;;9.15;100.00
5877;BME280;2964;42.144;24.730;2022-12-17T01:10:57;143850.25;;;9.08;100.00
5877;BME280;2964;42.144;24.730;2022-12-17T01:13:41;143836.47;;;9.03;100.00
5877;BME280;2964;42.144;24.730;2022-12-17T01:16:26;143807.63;;;8.91;100.00
5877;BME280;2964;42.144;24.730;2022-12-17T01:19:11;143817.66;;;8.95;100.00
5877;BME280;2964;42.144;24.730;2022-12-17T01:21:55;143780.03;;;8.80;100.00
5877;BME280;2964;42.144;24.730;2022-12-17T01:24:39;143827.66;;;8.99;100.00
5877;BME280;2964;42.144;24.730;2022-12-17T01:27:23;143840.22;;;9.04;100.00
5877;BME280;2964;42.144;24.730;2022-12-17T01:30:07;143836.47;;;9.03;100.00
5877;BME280;2964;42.144;24.730;2022-12-17T01:32:59;143822.66;;;8.97;100.00
5877;BME280;2964;42.144;24.730;2022-12-17T01:35:43;143839.00;;;9.04;100.00
5877;BME280;2964;42.144;24.730;2022-12-17T01:38:28;143839.00;;;9.04;100.00
5877;BME280;2964;42.144;24.730;2022-12-17T01:41:08;143763.72;;;8.73;100.00
5877;BME280;2964;42.144;24.730;2022-12-17T01:43:53;143774.97;;;8.78;100.00
5877;BME280;2964;42.144;24.730;2022-12-17T01:46:40;143787.53;;;8.83;100.00
5877;BME280;2964;42.144;24.730;2022-12-17T01:49:26;143821.41;;;8.97;100.00
5877;BME280;2964;42.144;24.730;2022-12-17T01:52:12;143800.06;;;8.88;100.00
5877;BME280;2964;42.144;24.730;2022-12-17T01:54:58;143759.94;;;8.72;100.00
5877;BME280;2964;42.144;24.730;2022-12-17T01:57:43;143747.38;;;8.66;100.00
5877;BME280;2964;42.144;24.730;2022-12-17T02:00:27;143734.88;;;8.61;100.00
5877;BME280;2964;42.144;24.730;2022-12-17T02:03:13;143808.88;;;8.92;100.00
5877;BME280;2964;42.144;24.730;2022-12-17T02:06:02;143744.91;;;8.65;100.00
5877;BME280;2964;42.144;24.730;2022-12-17T02:08:54;143773.72;;;8.77;100.00
5877;BME280;2964;42.144;24.730;2022-12-17T02:11:47;143808.88;;;8.92;100.00
5877;BME280;2964;42.144;24.730;2022-12-17T02:14:40;143757.47;;;8.71;100.00
5877;BME280;2964;42.144;24.730;2022-12-17T02:17:31;143801.31;;;8.88;100.00
5877;BME280;2964;42.144;24.730;2022-12-17T02:20:21;143742.38;;;8.64;100.00
5877;BME280;2964;42.144;24.730;2022-12-17T02:23:17;143769.97;;;8.76;100.00
5877;BME280;2964;42.144;24.730;2022-12-17T02:26:08;143752.41;;;8.68;100.00
5877;BME280;2964;42.144;24.730;2022-12-17T02:28:56;143738.59;;;8.63;100.00
5877;BME280;2964;42.144;24.730;2022-12-17T02:31:43;143747.38;;;8.66;100.00
5877;BME280;2964;42.144;24.730;2022-12-17T02:34:29;143738.59;;;8.63;100.00
5877;BME280;2964;42.144;24.730;2022-12-17T02:37:13;143800.06;;;8.88;100.00
5877;BME280;2964;42.144;24.730;2022-12-17T02:39:58;143780.03;;;8.80;100.00
5877;BME280;2964;42.144;24.730;2022-12-17T02:42:43;143724.81;;;8.57;100.00
5877;BME280;2964;42.144;24.730;2022-12-17T02:45:29;143777.50;;;8.79;100.00
5877;BME280;2964;42.144;24.730;2022-12-17T02:48:14;143774.97;;;8.78;100.00
5877;BME280;2964;42.144;24.730;2022-12-17T02:50:59;143817.66;;;8.95;100.00
5877;BME280;2964;42.144;24.730;2022-12-17T02:53:45;143801.31;;;8.88;100.00
5877;BME280;2964;42.144;24.730;2022-12-17T02:56:33;143643.28;;;8.24;100.00
5877;BME280;2964;42.144;24.730;2022-12-17T02:59:17;143762.47;;;8.73;100.00
5877;BME280;2964;42.144;24.730;2022-12-17T03:02:03;143820.13;;;8.96;100.00
5877;BME280;2964;42.144;24.730;2022-12-17T03:04:47;143805.09;;;8.90;100.00
5877;BME280;2964;42.144;24.730;2022-12-17T03:07:31;143800.06;;;8.88;100.00
5877;BME280;2964;42.144;24.730;2022-12-17T03:10:15;143792.53;;;8.85;100.00
5877;BME280;2964;42.144;24.730;2022-12-17T03:12:59;143798.84;;;8.87;100.00
5877;BME280;2964;42.144;24.730;2022-12-17T03:15:43;143744.91;;;8.65;100.00
5877;BME280;2964;42.144;24.730;2022-12-17T03:18:28;143723.56;;;8.57;100.00
5877;BME280;2964;42.144;24.730;2022-12-17T03:21:12;143752.41;;;8.68;100.00
5877;BME280;2964;42.144;24.730;2022-12-17T03:23:56;143709.78;;;8.51;100.00
5877;BME280;2964;42.144;24.730;2022-12-17T03:26:40;143741.13;;;8.64;100.00
5877;BME280;2964;42.144;24.730;2022-12-17T03:29:24;143737.38;;;8.62;100.00
5877;BME280;2964;42.144;24.730;2022-12-17T03:32:13;143696.00;;;8.45;100.00
5877;BME280;2964;42.144;24.730;2022-12-17T03:34:55;143744.91;;;8.65;100.00
5877;BME280;2964;42.144;24.730;2022-12-17T03:37:39;143719.81;;;8.55;100.00
5877;BME280;2964;42.144;24.730;2022-12-17T03:40:23;143752.41;;;8.68;100.00
5877;BME280;2964;42.144;24.730;2022-12-17T03:43:07;143746.16;;;8.66;100.00
5877;BME280;2964;42.144;24.730;2022-12-17T03:45:52;143689.75;;;8.43;100.00
5877;BME280;2964;42.144;24.730;2022-12-17T03:48:42;143683.41;;;8.40;100.00
5877;BME280;2964;42.144;24.730;2022-12-17T03:51:27;143672.13;;;8.36;100.00
5877;BME280;2964;42.144;24.730;2022-12-17T03:54:26;143738.59;;;8.63;100.00
5877;BME280;2964;42.144;24.730;2022-12-17T03:57:10;143692.22;;;8.44;100.00
5877;BME280;2964;42.144;24.730;2022-12-17T03:59:54;143757.47;;;8.71;100.00
5877;BME280;2964;42.144;24.730;2022-12-17T04:02:38;143764.94;;;8.74;100.00
5877;BME280;2964;42.144;24.730;2022-12-17T04:05:22;143728.59;;;8.59;100.00
5877;BME280;2964;42.144;24.730;2022-12-17T04:08:07;143672.13;;;8.36;100.00
5877;BME280;2964;42.144;24.730;2022-12-17T04:10:51;143658.34;;;8.30;100.00
5877;BME280;2964;42.144;24.730;2022-12-17T04:13:35;143675.84;;;8.37;100.00
5877;BME280;2964;42.144;24.730;2022-12-17T04:16:19;143674.63;;;8.37;100.00
5877;BME280;2964;42.144;24.730;2022-12-17T04:19:03;143672.13;;;8.36;100.00
5877;BME280;2964;42.144;24.730;2022-12-17T04:21:47;143727.34;;;8.58;100.00
5877;BME280;2964;42.144;24.730;2022-12-17T04:24:32;143673.38;;;8.36;100.00
5877;BME280;2964;42.144;24.730;2022-12-17T04:27:16;143752.41;;;8.68;100.00
5877;BME280;2964;42.144;24.730;2022-12-17T04:30:00;143719.81;;;8.55;100.00
5877;BME280;2964;42.144;24.730;2022-12-17T04:32:44;143688.47;;;8.42;100.00
5877;BME280;2964;42.144;24.730;2022-12-17T04:35:27;143728.59;;;8.59;100.00
5877;BME280;2964;42.144;24.730;2022-12-17T04:38:11;143653.28;;;8.28;100.00
5877;BME280;2964;42.144;24.730;2022-12-17T04:40:56;143694.75;;;8.45;100.00
5877;BME280;2964;42.144;24.730;2022-12-17T04:43:40;143690.97;;;8.43;100.00
5877;BME280;2964;42.144;24.730;2022-12-17T04:46:24;143731.13;;;8.60;100.00
5877;BME280;2964;42.144;24.730;2022-12-17T04:49:09;143701.00;;;8.47;100.00
5877;BME280;2964;42.144;24.730;2022-12-17T04:51:53;143674.63;;;8.37;100.00
5877;BME280;2964;42.144;24.730;2022-12-17T04:54:37;143673.38;;;8.36;100.00
5877;BME280;2964;42.144;24.730;2022-12-17T04:57:22;143650.81;;;8.27;100.00
5877;BME280;2964;42.144;24.730;2022-12-17T05:00:07;143670.84;;;8.35;100.00
5877;BME280;2964;42.144;24.730;2022-12-17T05:02:52;143689.75;;;8.43;100.00
5877;BME280;2964;42.144;24.730;2022-12-17T05:05:36;143697.22;;;8.46;100.00
5877;BME280;2964;42.144;24.730;2022-12-17T05:08:20;143706.00;;;8.49;100.00
5877;BME280;2964;42.144;24.730;2022-12-17T05:11:05;143649.56;;;8.26;100.00
5877;BME280;2964;42.144;24.730;2022-12-17T05:13:50;143728.59;;;8.59;100.00
5877;BME280;2964;42.144;24.730;2022-12-17T05:16:34;143677.16;;;8.38;100.00
5877;BME280;2964;42.144;24.730;2022-12-17T05:19:18;143719.81;;;8.55;100.00
5877;BME280;2964;42.144;24.730;2022-12-17T05:22:02;143756.16;;;8.70;100.00
5877;BME280;2964;42.144;24.730;2022-12-17T05:24:46;143702.25;;;8.48;100.00
5877;BME280;2964;42.144;24.730;2022-12-17T05:27:30;143694.75;;;8.45;100.00
5877;BME280;2964;42.144;24.730;2022-12-17T05:30:15;143727.34;;;8.58;100.00
5877;BME280;2964;42.144;24.730;2022-12-17T05:33:00;143741.13;;;8.64;100.00
5877;BME280;2964;42.144;24.730;2022-12-17T05:35:44;143716.03;;;8.54;100.00
5877;BME280;2964;42.144;24.730;2022-12-17T05:38:28;143764.94;;;8.74;100.00
5877;BME280;2964;42.144;24.730;2022-12-17T05:41:08;143707.25;;;8.50;100.00
5877;BME280;2964;42.144;24.730;2022-12-17T05:43:52;143688.47;;;8.42;100.00
5877;BME280;2964;42.144;24.730;2022-12-17T05:46:38;143714.78;;;8.53;100.00
5877;BME280;2964;42.144;24.730;2022-12-17T05:49:24;143757.47;;;8.71;100.00
5877;BME280;2964;42.144;24.730;2022-12-17T05:52:08;143737.38;;;8.62;100.00
5877;BME280;2964;42.144;24.730;2022-12-17T05:54:52;143759.94;;;8.72;100.00
5877;BME280;2964;42.144;24.730;2022-12-17T05:57:37;143690.97;;;8.43;100.00
5877;BME280;2964;42.144;24.730;2022-12-17T06:00:27;143678.38;;;8.38;100.00
5877;BME280;2964;42.144;24.730;2022-12-17T06:03:13;143554.25;;;7.87;100.00
5877;BME280;2964;42.144;24.730;2022-12-17T06:05:57;143675.84;;;8.37;100.00
5877;BME280;2964;42.144;24.730;2022-12-17T06:08:41;143574.34;;;7.96;100.00
5877;BME280;2964;42.144;24.730;2022-12-17T06:11:26;143658.34;;;8.30;100.00
5877;BME280;2964;42.144;24.730;2022-12-17T06:14:10;143619.47;;;8.14;100.00
5877;BME280;2964;42.144;24.730;2022-12-17T06:16:54;143698.47;;;8.46;100.00
5877;BME280;2964;42.144;24.730;2022-12-17T06:19:40;143687.22;;;8.42;100.00
5877;BME280;2964;42.144;24.730;2022-12-17T06:22:24;143738.59;;;8.63;100.00
5877;BME280;2964;42.144;24.730;2022-12-17T06:25:08;143746.16;;;8.66;100.00
5877;BME280;2964;42.144;24.730;2022-12-17T06:27:56;143795.06;;;8.86;100.00
5877;BME280;2964;42.144;24.730;2022-12-17T06:30:41;143782.50;;;8.81;100.00
5877;BME280;2964;42.144;24.730;2022-12-17T06:33:25;143827.66;;;8.99;100.00
5877;BME280;2964;42.144;24.730;2022-12-17T06:36:13;143762.47;;;8.73;100.00
5877;BME280;2964;42.144;24.730;2022-12-17T06:38:57;143739.91;;;8.63;100.00
5877;BME280;2964;42.144;24.730;2022-12-17T06:41:38;143769.97;;;8.76;100.00
5877;BME280;2964;42.144;24.730;2022-12-17T06:44:22;143717.31;;;8.54;100.00
5877;BME280;2964;42.144;24.730;2022-12-17T06:47:06;143743.63;;;8.65;100.00
5877;BME280;2964;42.144;24.730;2022-12-17T06:49:50;143714.78;;;8.53;100.00
5877;BME280;2964;42.144;24.730;2022-12-17T06:52:35;143742.38;;;8.64;100.00
5877;BME280;2964;42.144;24.730;2022-12-17T06:55:20;143719.81;;;8.55;100.00
5877;BME280;2964;42.144;24.730;2022-12-17T06:58:04;143694.75;;;8.45;100.00
5877;BME280;2964;42.144;24.730;2022-12-17T07:00:49;143732.34;;;8.60;100.00
5877;BME280;2964;42.144;24.730;2022-12-17T07:03:48;143797.56;;;8.87;100.00
5877;BME280;2964;42.144;24.730;2022-12-17T07:06:32;143741.13;;;8.64;100.00
5877;BME280;2964;42.144;24.730;2022-12-17T07:09:18;143790.06;;;8.84;100.00
5877;BME280;2964;42.144;24.730;2022-12-17T07:12:02;143846.47;;;9.07;100.00
5877;BME280;2964;42.144;24.730;2022-12-17T07:14:46;143802.59;;;8.89;100.00
5877;BME280;2964;42.144;24.730;2022-12-17T07:17:30;143727.34;;;8.58;100.00
5877;BME280;2964;42.144;24.730;2022-12-17T07:20:14;143782.50;;;8.81;100.00
5877;BME280;2964;42.144;24.730;2022-12-17T07:22:59;143714.78;;;8.53;100.00
5877;BME280;2964;42.144;24.730;2022-12-17T07:25:44;143783.75;;;8.81;100.00
5877;BME280;2964;42.144;24.730;2022-12-17T07:28:28;143732.34;;;8.60;100.00
5877;BME280;2964;42.144;24.730;2022-12-17T07:31:12;143807.63;;;8.91;100.00
5877;BME280;2964;42.144;24.730;2022-12-17T07:34:01;143844.00;;;9.06;100.00
5877;BME280;2964;42.144;24.730;2022-12-17T07:36:46;143847.78;;;9.07;100.00
5877;BME280;2964;42.144;24.730;2022-12-17T07:39:29;143795.06;;;8.86;100.00
5877;BME280;2964;42.144;24.730;2022-12-17T07:42:15;143880.38;;;9.21;100.00
5877;BME280;2964;42.144;24.730;2022-12-17T07:44:59;143855.25;;;9.11;100.00
5877;BME280;2964;42.144;24.730;2022-12-17T07:47:52;143805.09;;;8.90;100.00
5877;BME280;2964;42.144;24.730;2022-12-17T07:50:37;143857.78;;;9.12;100.00
5877;BME280;2964;42.144;24.730;2022-12-17T07:53:21;143854.03;;;9.10;100.00
5877;BME280;2964;42.144;24.730;2022-12-17T07:56:05;143874.06;;;9.18;100.00
5877;BME280;2964;42.144;24.730;2022-12-17T07:58:51;143935.56;;;9.43;100.00
5877;BME280;2964;42.144;24.730;2022-12-17T08:01:35;143910.47;;;9.33;100.00
5877;BME280;2964;42.144;24.730;2022-12-17T08:04:18;143885.38;;;9.23;100.00
5877;BME280;2964;42.144;24.730;2022-12-17T08:07:02;143933.03;;;9.42;100.00
5877;BME280;2964;42.144;24.730;2022-12-17T08:09:58;143905.44;;;9.31;100.00
5877;BME280;2964;42.144;24.730;2022-12-17T08:12:52;143935.56;;;9.43;100.00
5877;BME280;2964;42.144;24.730;2022-12-17T08:15:38;143902.97;;;9.30;100.00
5877;BME280;2964;42.144;24.730;2022-12-17T08:18:25;143895.41;;;9.27;100.00
5877;BME280;2964;42.144;24.730;2022-12-17T08:21:09;143916.75;;;9.36;100.00
5877;BME280;2964;42.144;24.730;2022-12-17T08:23:53;143817.66;;;8.95;100.00
5877;BME280;2964;42.144;24.730;2022-12-17T08:26:37;143936.81;;;9.44;100.00
5877;BME280;2964;42.144;24.730;2022-12-17T08:29:21;143930.56;;;9.41;100.00
5877;BME280;2964;42.144;24.730;2022-12-17T08:32:06;143924.31;;;9.39;100.00
5877;BME280;2964;42.144;24.730;2022-12-17T08:34:51;143945.59;;;9.47;100.00
5877;BME280;2964;42.144;24.730;2022-12-17T08:37:47;143999.56;;;9.70;100.00
5877;BME280;2964;42.144;24.730;2022-12-17T08:40:31;143982.00;;;9.62;100.00
5877;BME280;2964;42.144;24.730;2022-12-17T08:43:17;143945.59;;;9.47;100.00
5877;BME280;2964;42.144;24.730;2022-12-17T08:46:01;144024.69;;;9.80;100.00
5877;BME280;2964;42.144;24.730;2022-12-17T08:48:55;143982.00;;;9.62;100.00
5877;BME280;2964;42.144;24.730;2022-12-17T08:51:39;144023.47;;;9.79;100.00
5877;BME280;2964;42.144;24.730;2022-12-17T08:54:23;143993.31;;;9.67;100.00
5877;BME280;2964;42.144;24.730;2022-12-17T08:57:07;144008.38;;;9.73;100.00
5877;BME280;2964;42.144;24.730;2022-12-17T08:59:51;144073.66;;;10.00;100.00
5877;BME280;2964;42.144;24.730;2022-12-17T09:02:35;144057.34;;;9.93;100.00
5877;BME280;2964;42.144;24.730;2022-12-17T09:05:21;144063.59;;;9.96;100.00
5877;BME280;2964;42.144;24.730;2022-12-17T09:08:05;144027.19;;;9.81;100.00
5877;BME280;2964;42.144;24.730;2022-12-17T09:10:50;143992.06;;;9.66;100.00
5877;BME280;2964;42.144;24.730;2022-12-17T09:13:40;144053.56;;;9.92;100.00
5877;BME280;2964;42.144;24.730;2022-12-17T09:16:24;144058.56;;;9.94;100.00
5877;BME280;2964;42.144;24.730;2022-12-17T09:19:09;144028.47;;;9.81;100.00
5877;BME280;2964;42.144;24.730;2022-12-17T09:21:55;144028.47;;;9.81;100.00
5877;BME280;2964;42.144;24.730;2022-12-17T09:24:41;144020.94;;;9.78;100.00
5877;BME280;2964;42.144;24.730;2022-12-17T09:27:24;144039.75;;;9.86;100.00
5877;BME280;2964;42.144;24.730;2022-12-17T09:30:09;143953.16;;;9.51;100.00
5877;BME280;2964;42.144;24.730;2022-12-17T09:32:53;144032.19;;;9.83;100.00
5877;BME280;2964;42.144;24.730;2022-12-17T09:35:39;143935.56;;;9.43;100.00
5877;BME280;2964;42.144;24.730;2022-12-17T09:38:24;143984.53;;;9.63;100.00
5877;BME280;2964;42.144;24.730;2022-12-17T09:41:16;144005.88;;;9.72;100.00
5877;BME280;2964;42.144;24.730;2022-12-17T09:44:05;144023.47;;;9.79;100.00
5877;BME280;2964;42.144;24.730;2022-12-17T09:46:55;144010.91;;;9.74;100.00
5877;BME280;2964;42.144;24.730;2022-12-17T09:49:53;143984.53;;;9.63;100.00
5877;BME280;2964;42.144;24.730;2022-12-17T09:52:40;144053.56;;;9.92;100.00
5877;BME280;2964;42.144;24.730;2022-12-17T09:55:27;144013.38;;;9.75;100.00
5877;BME280;2964;42.144;24.730;2022-12-17T09:58:17;144015.91;;;9.76;100.00
5877;BME280;2964;42.144;24.730;2022-12-17T10:01:03;144125.13;;;10.21;100.00
5877;BME280;2964;42.144;24.730;2022-12-17T10:03:47;144167.91;;;10.38;100.00
5877;BME280;2964;42.144;24.730;2022-12-17T10:06:34;144081.16;;;10.03;100.00
5877;BME280;2964;42.144;24.730;2022-12-17T10:09:19;144088.72;;;10.06;100.00
5877;BME280;2964;42.144;24.730;2022-12-17T10:12:11;144127.66;;;10.22;100.00
5877;BME280;2964;42.144;24.730;2022-12-17T10:14:56;144171.63;;;10.40;100.00
5877;BME280;2964;42.144;24.730;2022-12-17T10:17:41;144159.09;;;10.35;100.00
5877;BME280;2964;42.144;24.730;2022-12-17T10:20:30;144142.72;;;10.28;100.00
5877;BME280;2964;42.144;24.730;2022-12-17T10:23:24;144059.88;;;9.94;100.00
5877;BME280;2964;42.144;24.730;2022-12-17T10:26:15;144068.66;;;9.98;100.00
5877;BME280;2964;42.144;24.730;2022-12-17T10:29:03;144132.69;;;10.24;100.00
5877;BME280;2964;42.144;24.730;2022-12-17T10:31:48;144165.38;;;10.37;100.00
5877;BME280;2964;42.144;24.730;2022-12-17T10:34:35;144182.94;;;10.45;100.00
5877;BME280;2964;42.144;24.730;2022-12-17T10:37:30;144176.66;;;10.42;100.00
5877;BME280;2964;42.144;24.730;2022-12-17T10:40:21;144209.34;;;10.55;100.00
5877;BME280;2964;42.144;24.730;2022-12-17T10:43:26;144156.56;;;10.34;100.00
5877;BME280;2964;42.144;24.730;2022-12-17T10:46:21;144141.47;;;10.28;100.00
5877;BME280;2964;42.144;24.730;2022-12-17T10:49:10;144213.13;;;10.57;100.00
5877;BME280;2964;42.144;24.730;2022-12-17T10:51:59;144199.31;;;10.51;100.00
5877;BME280;2964;42.144;24.730;2022-12-17T10:55:03;144218.13;;;10.59;100.00
5877;BME280;2964;42.144;24.730;2022-12-17T10:57:49;144240.75;;;10.68;100.00
5877;BME280;2964;42.144;24.730;2022-12-17T11:00:36;144133.91;;;10.24;100.00
5877;BME280;2964;42.144;24.730;2022-12-17T11:03:48;144302.28;;;10.93;100.00
5877;BME280;2964;42.144;24.730;2022-12-17T11:06:35;144274.63;;;10.82;100.00
5877;BME280;2964;42.144;24.730;2022-12-17T11:09:31;144293.47;;;10.90;100.00
5877;BME280;2964;42.144;24.730;2022-12-17T11:12:21;144377.69;;;11.24;100.00
5877;BME280;2964;42.144;24.730;2022-12-17T11:15:17;144299.78;;;10.92;100.00
5877;BME280;2964;42.144;24.730;2022-12-17T11:18:03;144298.50;;;10.92;100.00
5877;BME280;2964;42.144;24.730;2022-12-17T11:20:57;144297.25;;;10.91;100.00
5877;BME280;2964;42.144;24.730;2022-12-17T11:23:45;144292.22;;;10.89;100.00
5877;BME280;2964;42.144;24.730;2022-12-17T11:26:37;144361.31;;;11.17;100.00
5877;BME280;2964;42.144;24.730;2022-12-17T11:29:22;144391.50;;;11.30;100.00
5877;BME280;2964;42.144;24.730;2022-12-17T11:32:28;144386.47;;;11.28;100.00
5877;BME280;2964;42.144;24.730;2022-12-17T11:35:19;144285.97;;;10.87;100.00
5877;BME280;2964;42.144;24.730;2022-12-17T11:38:13;144324.88;;;11.02;100.00
5877;BME280;2964;42.144;24.730;2022-12-17T11:41:05;144341.25;;;11.09;100.00
5877;BME280;2964;42.144;24.730;2022-12-17T11:43:57;144365.09;;;11.19;100.00
5877;BME280;2964;42.144;24.730;2022-12-17T11:46:49;144353.81;;;11.14;100.00
5877;BME280;2964;42.144;24.730;2022-12-17T11:49:54;144357.59;;;11.16;100.00
5877;BME280;2964;42.144;24.730;2022-12-17T11:52:49;144297.25;;;10.91;100.00
5877;BME280;2964;42.144;24.730;2022-12-17T11:55:45;144219.38;;;10.59;100.00
5877;BME280;2964;42.144;24.730;2022-12-17T11:58:37;144180.41;;;10.43;100.00
5877;BME280;2964;42.144;24.730;2022-12-17T12:01:28;144147.72;;;10.30;100.00
5877;BME280;2964;42.144;24.730;2022-12-17T12:04:32;144128.91;;;10.22;100.00
5877;BME280;2964;42.144;24.730;2022-12-17T12:07:25;144121.34;;;10.19;100.00
5877;BME280;2964;42.144;24.730;2022-12-17T12:10:17;144201.78;;;10.52;100.00
5877;BME280;2964;42.144;24.730;2022-12-17T12:13:13;144267.13;;;10.79;100.00
5877;BME280;2964;42.144;24.730;2022-12-17T12:16:06;144238.22;;;10.67;100.00
5877;BME280;2964;42.144;24.730;2022-12-17T12:19:01;144254.56;;;10.74;100.00
5877;BME280;2964;42.144;24.730;2022-12-17T12:21:53;144328.66;;;11.04;100.00
5877;BME280;2964;42.144;24.730;2022-12-17T12:25:08;144334.97;;;11.07;100.00
5877;BME280;2964;42.144;24.730;2022-12-17T12:28:06;144376.44;;;11.24;100.00
5877;BME280;2964;42.144;24.730;2022-12-17T12:30:58;144427.94;;;11.45;100.00
5877;BME280;2964;42.144;24.730;2022-12-17T12:33:52;144404.09;;;11.35;100.00
5877;BME280;2964;42.144;24.730;2022-12-17T12:36:39;144443.00;;;11.51;100.00
5877;BME280;2964;42.144;24.730;2022-12-17T12:39:27;144430.50;;;11.46;100.00
5877;BME280;2964;42.144;24.730;2022-12-17T12:42:19;144473.19;;;11.63;100.00
5877;BME280;2964;42.144;24.730;2022-12-17T12:45:08;144415.38;;;11.39;100.00
5877;BME280;2964;42.144;24.730;2022-12-17T12:48:00;144430.50;;;11.46;100.00
5877;BME280;2964;42.144;24.730;2022-12-17T12:50:52;144400.31;;;11.33;100.00
5877;BME280;2964;42.144;24.730;2022-12-17T12:53:37;144402.84;;;11.34;100.00
5877;BME280;2964;42.144;24.730;2022-12-17T12:56:26;144458.13;;;11.57;100.00
5877;BME280;2964;42.144;24.730;2022-12-17T12:59:15;144417.91;;;11.40;100.00
5877;BME280;2964;42.144;24.730;2022-12-17T13:02:22;144395.28;;;11.31;100.00
5877;BME280;2964;42.144;24.730;2022-12-17T13:05:22;144401.56;;;11.34;100.00
5877;BME280;2964;42.144;24.730;2022-12-17T13:08:01;144414.13;;;11.39;100.00
5877;BME280;2964;42.144;24.730;2022-12-17T13:10:30;144434.25;;;11.47;100.00
5877;BME280;2964;42.144;24.730;2022-12-17T13:12:59;144458.13;;;11.57;100.00
5877;BME280;2964;42.144;24.730;2022-12-17T13:15:36;144460.63;;;11.58;100.00
5877;BME280;2964;42.144;24.730;2022-12-17T13:18:16;144459.38;;;11.57;100.00
5877;BME280;2964;42.144;24.730;2022-12-17T13:20:55;144460.63;;;11.58;100.00
5877;BME280;2964;42.144;24.730;2022-12-17T13:23:29;144507.16;;;11.77;100.00
5877;BME280;2964;42.144;24.730;2022-12-17T13:26:13;144513.44;;;11.79;100.00
5877;BME280;2964;42.144;24.730;2022-12-17T13:28:40;144521.00;;;11.83;100.00
5877;BME280;2964;42.144;24.730;2022-12-17T13:31:15;144561.28;;;11.99;100.00
5877;BME280;2964;42.144;24.730;2022-12-17T13:33:45;144586.41;;;12.09;100.00
5877;BME280;2964;42.144;24.730;2022-12-17T13:36:22;144596.47;;;12.13;100.00
5877;BME280;2964;42.144;24.730;2022-12-17T13:38:57;144602.78;;;12.16;100.00
5877;BME280;2964;42.144;24.730;2022-12-17T13:41:27;144639.25;;;12.31;100.00
5877;BME280;2964;42.144;24.730;2022-12-17T13:43:57;144649.31;;;12.35;100.00
5877;BME280;2964;42.144;24.730;2022-12-17T13:46:27;144648.06;;;12.34;100.00
5877;BME280;2964;42.144;24.730;2022-12-17T13:48:56;144678.25;;;12.47;100.00
5877;BME280;2964;42.144;24.730;2022-12-17T13:51:26;144632.97;;;12.28;100.00
5877;BME280;2964;42.144;24.730;2022-12-17T13:53:55;144616.63;;;12.22;100.00
5877;BME280;2964;42.144;24.730;2022-12-17T13:56:23;144634.22;;;12.29;100.00
5877;BME280;2964;42.144;24.730;2022-12-17T13:58:51;144634.22;;;12.29;100.00
5877;BME280;2964;42.144;24.730;2022-12-17T14:01:18;144612.81;;;12.20;100.00
5877;BME280;2964;42.144;24.730;2022-12-17T14:03:50;144601.53;;;12.15;100.00
5877;BME280;2964;42.144;24.730;2022-12-17T14:06:17;144586.41;;;12.09;100.00
5877;BME280;2964;42.144;24.730;2022-12-17T14:08:46;144586.41;;;12.09;100.00
5877;BME280;2964;42.144;24.730;2022-12-17T14:11:14;144666.91;;;12.42;100.00
5877;BME280;2964;42.144;24.730;2022-12-17T14:13:59;144656.88;;;12.38;100.00
5877;BME280;2964;42.144;24.730;2022-12-17T14:16:32;144624.16;;;12.25;100.00
5877;BME280;2964;42.144;24.730;2022-12-17T14:18:59;144648.06;;;12.34;100.00
5877;BME280;2964;42.144;24.730;2022-12-17T14:21:26;144644.28;;;12.33;100.00
5877;BME280;2964;42.144;24.730;2022-12-17T14:23:55;144612.81;;;12.20;100.00
5877;BME280;2964;42.144;24.730;2022-12-17T14:26:23;144597.75;;;12.14;100.00
5877;BME280;2964;42.144;24.730;2022-12-17T14:28:51;144590.19;;;12.11;100.00
5877;BME280;2964;42.144;24.730;2022-12-17T14:31:20;144629.19;;;12.27;100.00
5877;BME280;2964;42.144;24.730;2022-12-17T14:33:59;144651.84;;;12.36;100.00